Albrightsville, Pennsylvania
Current Conditions -  °F | °C
As of 11:53 AM on Friday 24 Oct 2014 (Local Time) from KMPO Reporting Station
Scattered Clouds Scattered Clouds  
Wind Chill: 54°   Ceiling: Unl
Heat Index: 54°   Visibility: 10mi
Dew Point: 42°   Wind: 18mph
Humidity: 64%   Direction: 320°NW
Pressure: 29.85"   Gusts: 30mph
Location:  41°N, 75.53°W
Report Text: KMPO 241553Z AUTO 32016G26KT 10SM SCT024 12/06 A2985 RMK AO2 PK WND 31030/1455 SLP112 T01220056
Loading
Personal Weather Stations






























Interactive Weather Map
Tropical Storm Tracking
New forecast layout! Learn more

10-Day Weather Forecast

Advertisements
Track Severe Weather on mobile